createdAt,value
2023-04-02T00:01:16.848Z,99768.72
2023-04-02T00:03:20.079Z,99767.13
2023-04-02T00:05:41.191Z,99766.00
2023-04-02T00:07:43.974Z,99769.63
2023-04-02T00:09:45.654Z,99774.50
2023-04-02T00:11:49.126Z,99773.91
2023-04-02T00:13:52.104Z,99771.22
2023-04-02T00:15:58.314Z,99773.91
2023-04-02T00:18:00.775Z,99774.31
2023-04-02T00:20:06.621Z,99779.59
2023-04-02T00:22:15.893Z,99791.28
2023-04-02T00:24:20.793Z,99784.09
2023-04-02T00:26:28.751Z,99795.69
2023-04-02T00:28:30.934Z,99789.41
2023-04-02T00:30:32.578Z,99788.81
2023-04-02T00:32:36.063Z,99796.91
2023-04-02T00:34:39.631Z,99797.09
2023-04-02T00:36:47.131Z,99798.97
2023-04-02T00:38:49.081Z,99800.38
2023-04-02T00:40:52.578Z,99797.88
2023-04-02T00:42:57.628Z,99789.59
2023-04-02T00:45:01.343Z,99795.88
2023-04-02T00:47:10.863Z,99794.28
2023-04-02T00:49:20.336Z,99796.38
2023-04-02T00:51:26.079Z,99795.88
2023-04-02T00:53:30.964Z,99791.09
2023-04-02T00:55:36.625Z,99792.38
2023-04-02T00:57:42.311Z,99792.69
2023-04-02T00:59:51.421Z,99792.69
2023-04-02T01:01:56.710Z,99792.69
2023-04-02T01:03:59.597Z,99802.44
2023-04-02T01:06:05.714Z,99803.28
2023-04-02T01:08:16.631Z,99804.06
2023-04-02T01:10:35.104Z,99805.47
2023-04-02T01:12:51.045Z,99806.56
2023-04-02T01:15:02.150Z,99807.34
2023-04-02T01:17:17.037Z,99806.25
2023-04-02T01:19:44.089Z,99801.88
2023-04-02T01:21:56.048Z,99806.75
2023-04-02T01:24:02.500Z,99812.72
2023-04-02T01:26:15.622Z,99807.34
2023-04-02T01:28:20.619Z,99810.84
2023-04-02T01:30:24.094Z,99810.53
2023-04-02T01:32:28.971Z,99812.44
2023-04-02T01:34:31.176Z,99817.63
2023-04-02T01:36:42.471Z,99819.00
2023-04-02T01:38:50.664Z,99826.91
2023-04-02T01:40:58.503Z,99822.69
2023-04-02T01:43:12.657Z,99822.69
2023-04-02T01:45:16.365Z,99824.34
2023-04-02T01:47:22.871Z,99834.78
2023-04-02T01:49:24.606Z,99833.47
2023-04-02T01:51:29.767Z,99829.16
2023-04-02T01:53:31.590Z,99836.75
2023-04-02T01:55:40.252Z,99834.03
2023-04-02T01:57:44.791Z,99840.53
2023-04-02T01:59:46.527Z,99831.94
2023-04-02T02:01:53.369Z,99838.91
2023-04-02T02:03:56.683Z,99832.94
2023-04-02T02:05:59.137Z,99844.31
2023-04-02T02:08:00.766Z,99838.41
2023-04-02T02:10:03.004Z,99837.31
2023-04-02T02:12:05.505Z,99840.22
2023-04-02T02:14:14.975Z,99844.00
2023-04-02T02:16:17.421Z,99838.84
2023-04-02T02:18:21.709Z,99848.50
2023-04-02T02:20:27.936Z,99850.38
2023-04-02T02:22:32.745Z,99850.38
2023-04-02T02:24:36.032Z,99855.16
2023-04-02T02:26:38.406Z,99861.38
2023-04-02T02:28:42.516Z,99859.75
2023-04-02T02:30:47.981Z,99858.38
2023-04-02T02:32:59.860Z,99857.59
2023-04-02T02:35:06.014Z,99868.78
2023-04-02T02:37:13.817Z,99859.59
2023-04-02T02:39:20.152Z,99866.38
2023-04-02T02:41:26.910Z,99873.16
2023-04-02T02:43:29.144Z,99867.53
2023-04-02T02:45:36.403Z,99878.06
2023-04-02T02:47:39.923Z,99875.06
2023-04-02T02:49:44.757Z,99875.84
2023-04-02T02:51:50.473Z,99882.31
2023-04-02T02:53:57.657Z,99878.91
2023-04-02T02:56:01.739Z,99884.09
2023-04-02T02:58:07.406Z,99876.84
2023-04-02T03:09:23.969Z,99898.94
2023-04-02T03:11:32.777Z,99898.44
2023-04-02T03:13:37.537Z,99902.53
2023-04-02T03:15:49.777Z,99901.44
2023-04-02T03:17:57.802Z,99904.63
2023-04-02T03:20:04.541Z,99905.13
2023-04-02T03:22:13.092Z,99907.81
2023-04-02T03:24:23.737Z,99910.81
2023-04-02T03:26:31.161Z,99911.91
2023-04-02T03:28:36.444Z,99915.34
2023-04-02T03:30:44.871Z,99917.47
2023-04-02T03:32:50.817Z,99921.25
2023-04-02T03:34:56.682Z,99912.59
2023-04-02T03:37:02.172Z,99918.88
2023-04-02T03:39:14.351Z,99925.06
2023-04-02T03:41:21.425Z,99924.53
2023-04-02T03:43:25.919Z,99930.44
2023-04-02T03:45:32.346Z,99934.44
2023-04-02T03:47:36.798Z,99934.38
2023-04-02T03:49:43.777Z,99938.69
2023-04-02T03:51:52.856Z,99951.28
2023-04-02T03:53:55.137Z,99948.66
2023-04-02T04:00:24.539Z,99956.81
2023-04-02T04:02:35.163Z,99955.22
2023-04-02T04:04:41.501Z,99961.72
2023-04-02T04:06:46.122Z,99971.19
2023-04-02T04:08:51.772Z,99963.66
2023-04-02T04:10:56.042Z,99968.25
2023-04-02T04:13:03.834Z,99973.88
2023-04-02T04:15:12.268Z,99974.16
2023-04-02T04:17:20.689Z,99974.16
2023-04-02T04:19:31.587Z,99979.56
2023-04-02T04:21:33.725Z,99988.16
2023-04-02T04:23:38.536Z,99981.66
2023-04-02T04:25:41.112Z,99984.94
2023-04-02T04:27:51.241Z,99988.22
2023-04-02T04:29:57.864Z,99997.34
2023-04-02T04:32:16.396Z,99994.56
2023-04-02T04:34:24.362Z,99997.84
2023-04-02T04:36:30.725Z,100004.31
2023-04-02T04:38:35.578Z,100002.44
2023-04-02T04:40:45.015Z,99999.47
2023-04-02T04:42:50.472Z,100006.00
2023-04-02T04:45:00.233Z,100006.25
2023-04-02T04:47:07.984Z,100012.94
2023-04-02T04:49:14.473Z,100015.13
2023-04-02T04:51:24.126Z,100027.00
2023-04-02T04:53:28.029Z,100029.69
2023-04-02T04:55:35.255Z,100029.13
2023-04-02T04:57:41.391Z,100032.38
2023-04-02T04:59:48.869Z,100036.31
2023-04-02T05:01:57.371Z,100037.41
2023-04-02T05:04:05.256Z,100037.13
2023-04-02T05:06:13.190Z,100043.84
2023-04-02T05:08:21.556Z,100040.31
2023-04-02T05:10:34.543Z,100040.84
2023-04-02T05:12:39.697Z,100049.50
2023-04-02T05:14:49.224Z,100044.84
2023-04-02T05:16:57.458Z,100050.84
2023-04-02T05:19:06.502Z,100056.75
2023-04-02T05:21:16.973Z,100065.69
2023-04-02T05:23:23.872Z,100065.25
2023-04-02T05:25:27.685Z,100066.94
2023-04-02T05:27:38.664Z,100073.41
2023-04-02T05:29:44.348Z,100071.81
2023-04-02T05:31:53.853Z,100075.75
2023-04-02T05:33:56.048Z,100081.50
2023-04-02T05:36:00.857Z,100083.13
2023-04-02T05:38:03.093Z,100088.72
2023-04-02T05:40:14.908Z,100081.75
2023-04-02T05:42:22.330Z,100092.91
2023-04-02T05:44:27.494Z,100092.06
2023-04-02T05:46:34.588Z,100093.25
2023-04-02T05:48:39.734Z,100097.56
2023-04-02T05:50:44.590Z,100104.56
2023-04-02T05:52:50.185Z,100098.28
2023-04-02T05:54:58.365Z,100103.16
2023-04-02T05:57:04.625Z,100103.94
2023-04-02T05:59:11.254Z,100110.91
2023-04-02T06:01:20.092Z,100117.09
2023-04-02T06:03:28.365Z,100113.28
2023-04-02T06:05:36.675Z,100116.28
2023-04-02T06:07:45.265Z,100124.38
2023-04-02T06:09:50.752Z,100122.25
2023-04-02T06:11:57.493Z,100120.06
2023-04-02T06:14:00.725Z,100129.19
2023-04-02T06:16:03.048Z,100139.19
2023-04-02T06:18:08.278Z,100144.56
2023-04-02T06:20:15.322Z,100136.47
2023-04-02T06:22:23.636Z,100142.66
2023-04-02T06:24:27.640Z,100143.91
2023-04-02T06:26:33.746Z,100152.31
2023-04-02T06:28:40.418Z,100151.72
2023-04-02T06:30:44.145Z,100157.63
2023-04-02T06:32:45.956Z,100158.44
2023-04-02T06:34:47.669Z,100159.53
2023-04-02T06:36:51.186Z,100160.63
2023-04-02T06:38:55.953Z,100167.41
2023-04-02T06:40:59.646Z,100172.28
2023-04-02T06:43:07.291Z,100171.84
2023-04-02T06:45:16.744Z,100181.25
2023-04-02T06:47:28.963Z,100192.69
2023-04-02T06:49:36.056Z,100192.13
2023-04-02T06:51:41.176Z,100195.13
2023-04-02T06:53:46.279Z,100193.22
2023-04-02T06:55:52.561Z,100202.13
2023-04-02T06:57:54.295Z,100204.28
2023-04-02T06:59:56.052Z,100209.91
2023-04-02T07:02:01.426Z,100212.59
2023-04-02T07:04:04.967Z,100212.91
2023-04-02T07:06:13.114Z,100215.25
2023-04-02T07:08:14.790Z,100219.66
2023-04-02T07:10:16.476Z,100226.41
2023-04-02T07:12:22.501Z,100222.66
2023-04-02T07:14:24.103Z,100227.53
2023-04-02T07:16:27.998Z,100231.06
2023-04-02T07:18:31.618Z,100235.09
2023-04-02T07:20:35.930Z,100240.22
2023-04-02T07:22:37.626Z,100240.44
2023-04-02T07:24:39.300Z,100241.75
2023-04-02T07:26:41.433Z,100244.97
2023-04-02T07:28:43.567Z,100252.00
2023-04-02T07:30:46.081Z,100252.81
2023-04-02T07:32:48.376Z,100260.06
2023-04-02T07:34:50.029Z,100265.78
2023-04-02T07:36:53.026Z,100269.00
2023-04-02T07:38:54.778Z,100280.06
2023-04-02T07:40:56.486Z,100282.75
2023-04-02T07:42:58.120Z,100282.75
2023-04-02T07:44:59.726Z,100285.75
2023-04-02T07:47:01.458Z,100288.16
2023-04-02T07:49:03.583Z,100288.66
2023-04-02T07:51:05.471Z,100290.81
2023-04-02T07:53:25.565Z,100291.06
2023-04-02T07:55:27.388Z,100288.66
2023-04-02T07:57:29.013Z,100291.66
2023-04-02T07:59:33.079Z,100302.72
2023-04-02T08:01:34.677Z,100305.16
2023-04-02T08:03:36.313Z,100313.81
2023-04-02T08:05:38.289Z,100316.22
2023-04-02T08:07:40.117Z,100317.81
2023-04-02T08:09:43.032Z,100320.75
2023-04-02T08:11:44.838Z,100323.69
2023-04-02T08:13:46.603Z,100326.31
2023-04-02T08:15:48.178Z,100326.53
2023-04-02T08:17:49.896Z,100330.28
2023-04-02T08:19:55.025Z,100332.69
2023-04-02T08:21:57.103Z,100335.38
2023-04-02T08:23:58.671Z,100331.38
2023-04-02T08:26:01.956Z,100333.78
2023-04-02T08:28:03.600Z,100341.31
2023-04-02T08:30:07.382Z,100344.97
2023-04-02T08:32:12.012Z,100354.41
2023-04-02T08:34:13.876Z,100354.88
2023-04-02T08:36:16.475Z,100357.84
2023-04-02T08:38:21.189Z,100352.94
2023-04-02T08:40:26.741Z,100361.56
2023-04-02T08:42:37.716Z,100364.00
2023-04-02T08:44:49.264Z,100370.72
2023-04-02T08:46:54.329Z,100370.72
2023-04-02T08:48:59.057Z,100377.72
2023-04-02T08:51:03.029Z,100377.13
2023-04-02T08:53:08.060Z,100381.72
2023-04-02T08:55:19.744Z,100385.97
2023-04-02T08:57:31.669Z,100387.09
2023-04-02T08:59:36.406Z,100388.75
2023-04-02T09:01:47.958Z,100392.97
2023-04-02T09:03:53.799Z,100391.38
2023-04-02T09:05:57.296Z,100395.94
2023-04-02T09:08:02.309Z,100396.81
2023-04-02T09:10:05.374Z,100392.16
2023-04-02T09:12:17.759Z,100402.59
2023-04-02T09:14:21.405Z,100405.59
2023-04-02T09:16:38.577Z,100410.09
2023-04-02T09:18:41.016Z,100416.72
2023-04-02T09:20:43.091Z,100411.88
2023-04-02T09:22:46.448Z,100415.59
2023-04-02T09:24:51.858Z,100414.22
2023-04-02T09:26:53.550Z,100421.72
2023-04-02T09:29:01.984Z,100423.34
2023-04-02T09:31:12.419Z,100426.28
2023-04-02T09:33:15.463Z,100430.00
2023-04-02T09:35:39.095Z,100432.69
2023-04-02T09:37:40.855Z,100437.56
2023-04-02T09:39:42.511Z,100434.00
2023-04-02T09:41:46.373Z,100443.94
2023-04-02T09:44:12.245Z,100440.06
2023-04-02T09:46:18.412Z,100447.88
2023-04-02T09:48:27.400Z,100449.41
2023-04-02T09:50:33.827Z,100451.75
2023-04-02T09:52:35.758Z,100451.16
2023-04-02T09:54:38.096Z,100454.28
2023-04-02T09:56:40.856Z,100458.56
2023-04-02T09:58:44.715Z,100459.28
2023-04-02T10:00:51.244Z,100460.28
2023-04-02T10:03:05.028Z,100465.63
2023-04-02T10:05:30.059Z,100469.72
2023-04-02T10:07:42.867Z,100468.84
2023-04-02T10:09:44.528Z,100472.84
2023-04-02T10:11:47.036Z,100479.88
2023-04-02T10:13:53.233Z,100473.69
2023-04-02T10:15:59.552Z,100474.69
2023-04-02T10:18:08.297Z,100480.75
2023-04-02T10:20:19.555Z,100483.97
2023-04-02T10:22:22.976Z,100486.38
2023-04-02T10:24:28.003Z,100483.59
2023-04-02T10:26:41.063Z,100488.59
2023-04-02T10:28:55.609Z,100486.66
2023-04-02T10:31:04.148Z,100498.66
2023-04-02T10:33:14.728Z,100497.97
2023-04-02T10:35:24.409Z,100501.41
2023-04-02T10:37:58.853Z,100505.88
2023-04-02T10:40:08.864Z,100510.34
2023-04-02T10:42:18.856Z,100511.75
2023-04-02T10:44:29.112Z,100523.28
2023-04-02T10:46:38.062Z,100520.00
2023-04-02T10:48:46.944Z,100524.00
2023-04-02T10:50:59.492Z,100532.84
2023-04-02T10:53:11.066Z,100526.00
2023-04-02T10:55:18.205Z,100527.63
2023-04-02T10:57:28.943Z,100544.19
2023-04-02T10:59:34.777Z,100542.22
2023-04-02T11:01:38.232Z,100539.47
2023-04-02T11:03:46.049Z,100553.78
2023-04-02T11:05:51.140Z,100559.19
2023-04-02T11:08:00.112Z,100564.06
2023-04-02T11:10:02.586Z,100563.06
2023-04-02T11:12:07.212Z,100567.59
2023-04-02T11:14:14.429Z,100569.53
2023-04-02T11:16:16.227Z,100571.59
2023-04-02T11:18:24.524Z,100580.28
2023-04-02T11:21:03.298Z,100582.75
2023-04-02T11:23:10.568Z,100589.09
2023-04-02T11:25:22.484Z,100592.38
2023-04-02T11:27:27.056Z,100585.91
2023-04-02T11:29:31.129Z,100588.59
2023-04-02T11:31:33.975Z,100598.84
2023-04-02T11:33:44.711Z,100597.72
2023-04-02T11:35:49.189Z,100603.88
2023-04-02T11:37:51.428Z,100603.81
2023-04-02T11:39:55.462Z,100610.06
2023-04-02T11:42:06.345Z,100612.16
2023-04-02T11:44:23.750Z,100613.22
2023-04-02T11:46:39.106Z,100613.44
2023-04-02T11:48:40.895Z,100625.66
2023-04-02T11:50:44.466Z,100624.50
2023-04-02T11:52:53.309Z,100632.25
2023-04-02T11:55:15.841Z,100629.03
2023-04-02T11:57:29.107Z,100634.75
2023-04-02T11:59:40.718Z,100645.09
2023-04-02T12:01:58.521Z,100638.41
2023-04-02T12:04:38.113Z,100645.16
2023-04-02T12:06:59.819Z,100645.84
2023-04-02T12:09:13.759Z,100652.00
2023-04-02T12:11:16.954Z,100653.09
2023-04-02T12:13:20.185Z,100649.63
2023-04-02T12:15:42.514Z,100660.25
2023-04-02T12:17:44.728Z,100664.16
2023-04-02T12:19:48.948Z,100660.44
2023-04-02T12:21:52.157Z,100662.38
2023-04-02T12:23:56.700Z,100665.38
2023-04-02T12:25:59.911Z,100669.84
2023-04-02T12:28:14.052Z,100679.84
2023-04-02T12:30:18.606Z,100680.50
2023-04-02T12:32:25.909Z,100681.16
2023-04-02T12:34:30.162Z,100685.56
2023-04-02T12:36:31.813Z,100689.41
2023-04-02T12:38:35.593Z,100697.19
2023-04-02T12:40:37.582Z,100700.13
2023-04-02T12:42:39.421Z,100698.81
2023-04-02T12:44:48.998Z,100714.28
2023-04-02T12:46:51.536Z,100710.28
2023-04-02T12:48:53.641Z,100718.13
2023-04-02T12:51:00.123Z,100721.91
2023-04-02T12:53:03.006Z,100727.91
2023-04-02T12:55:05.729Z,100732.16
2023-04-02T12:57:32.103Z,100725.88
2023-04-02T12:59:36.587Z,100725.94
2023-04-02T13:01:55.385Z,100730.19
2023-04-02T13:04:02.199Z,100732.34
2023-04-02T13:06:13.043Z,100732.94
2023-04-02T13:08:19.121Z,100742.34
2023-04-02T13:10:24.791Z,100741.25
2023-04-02T13:12:31.145Z,100743.41
2023-04-02T13:14:32.929Z,100746.13
2023-04-02T13:16:37.321Z,100741.00
2023-04-02T13:18:41.119Z,100741.81
2023-04-02T13:20:43.395Z,100741.84
2023-04-02T13:22:45.202Z,100745.91
2023-04-02T13:24:46.877Z,100750.81
2023-04-02T13:26:50.114Z,100750.31
2023-04-02T13:29:03.293Z,100759.50
2023-04-02T13:31:05.246Z,100759.50
2023-04-02T13:33:07.006Z,100762.97
2023-04-02T13:35:10.535Z,100756.28
2023-04-02T13:37:12.737Z,100769.25
2023-04-02T13:39:15.024Z,100766.25
2023-04-02T13:41:22.907Z,100769.50
2023-04-02T13:43:27.505Z,100765.94
2023-04-02T13:45:32.760Z,100776.47
2023-04-02T13:47:34.666Z,100774.88
2023-04-02T13:49:36.297Z,100782.72
2023-04-02T13:51:41.676Z,100779.44
2023-04-02T13:53:43.590Z,100790.78
2023-04-02T13:55:45.205Z,100783.78
2023-04-02T13:57:46.982Z,100789.72
2023-04-02T13:59:48.694Z,100792.16
2023-04-02T14:01:53.323Z,100796.47
2023-04-02T14:03:55.960Z,100806.19
2023-04-02T14:06:04.112Z,100807.00
2023-04-02T14:08:10.933Z,100814.53
2023-04-02T14:10:22.841Z,100818.81
2023-04-02T14:12:35.735Z,100818.59
2023-04-02T14:15:05.172Z,100819.09
2023-04-02T14:17:19.513Z,100824.50
2023-04-02T14:19:35.611Z,100831.78
2023-04-02T14:21:49.380Z,100831.28
2023-04-02T14:24:06.310Z,100836.97
2023-04-02T14:26:17.536Z,100840.72
2023-04-02T14:28:24.573Z,100854.47
2023-04-02T14:30:36.354Z,100848.56
2023-04-02T14:32:50.082Z,100853.94
2023-04-02T14:34:59.445Z,100857.41
2023-04-02T14:37:10.517Z,100856.63
2023-04-02T14:39:23.005Z,100860.13
2023-04-02T14:41:33.491Z,100857.16
2023-04-02T14:43:43.979Z,100859.34
2023-04-02T14:45:56.153Z,100864.44
2023-04-02T14:48:01.428Z,100871.44
2023-04-02T14:50:10.027Z,100876.81
2023-04-02T14:52:16.403Z,100883.28
2023-04-02T14:54:26.220Z,100878.19
2023-04-02T14:56:28.943Z,100884.91
2023-04-02T14:58:34.368Z,100889.00
2023-04-02T15:00:40.075Z,100882.25
2023-04-02T15:02:45.405Z,100887.34
2023-04-02T15:04:55.409Z,100891.13
2023-04-02T15:07:02.874Z,100897.06
2023-04-02T15:09:10.940Z,100898.97
2023-04-02T15:11:19.623Z,100900.03
2023-04-02T15:13:25.244Z,100906.50
2023-04-02T15:15:40.895Z,100918.88
2023-04-02T15:17:42.833Z,100923.19
2023-04-02T15:19:47.188Z,100923.72
2023-04-02T15:22:15.223Z,100932.34
2023-04-02T15:24:22.275Z,100932.84
2023-04-02T15:26:35.385Z,100922.63
2023-04-02T15:28:43.787Z,100926.94
2023-04-02T15:30:49.510Z,100934.47
2023-04-02T15:32:51.808Z,100941.50
2023-04-02T15:34:59.310Z,100937.44
2023-04-02T15:37:13.418Z,100944.19
2023-04-02T15:39:41.290Z,100949.88
2023-04-02T15:41:57.360Z,100954.22
2023-04-02T15:44:08.668Z,100949.88
2023-04-02T15:46:21.297Z,100958.00
2023-04-02T15:48:57.301Z,100956.38
2023-04-02T15:51:11.081Z,100963.41
2023-04-02T15:53:33.319Z,100958.00
2023-04-02T15:55:41.347Z,100957.97
2023-04-02T15:57:59.341Z,100959.91
2023-04-02T16:00:28.392Z,100961.22
2023-04-02T16:03:13.075Z,100967.44
2023-04-02T16:05:21.607Z,100969.09
2023-04-02T16:07:34.554Z,100978.22
2023-04-02T16:09:46.727Z,100984.22
2023-04-02T16:11:53.211Z,100979.06
2023-04-02T16:14:10.737Z,100990.69
2023-04-02T16:16:16.959Z,100992.31
2023-04-02T16:18:30.516Z,100995.81
2023-04-02T16:20:37.088Z,100997.44
2023-04-02T16:22:53.395Z,100997.09
2023-04-02T16:25:06.820Z,101003.63
2023-04-02T16:27:21.253Z,101008.22
2023-04-02T16:29:54.298Z,101003.56
2023-04-02T16:32:02.209Z,101013.56
2023-04-02T16:34:13.720Z,101020.75
2023-04-02T16:36:26.214Z,101033.69
2023-04-02T16:38:43.671Z,101026.41
2023-04-02T16:41:07.015Z,101034.81
2023-04-02T16:43:22.504Z,101046.41
2023-04-02T16:45:35.206Z,101041.03
2023-04-02T16:47:50.363Z,101045.09
2023-04-02T16:49:57.438Z,101048.56
2023-04-02T16:52:10.279Z,101055.31
2023-04-02T16:54:21.149Z,101063.31
2023-04-02T16:56:39.886Z,101071.44
2023-04-02T16:58:50.679Z,101077.38
2023-04-02T17:01:00.657Z,101078.72
2023-04-02T17:03:17.839Z,101085.78
2023-04-02T17:05:30.180Z,101090.38
2023-04-02T17:07:38.258Z,101095.16
2023-04-02T17:09:49.152Z,101098.41
2023-04-02T17:11:56.862Z,101101.56
2023-04-02T17:14:05.392Z,101111.19
2023-04-02T17:16:16.674Z,101108.44
2023-04-02T17:18:20.224Z,101108.66
2023-04-02T17:20:23.982Z,101124.59
2023-04-02T17:22:25.697Z,101124.16
2023-04-02T17:24:30.805Z,101125.00
2023-04-02T17:26:37.315Z,101127.50
2023-04-02T17:28:39.612Z,101128.34
2023-04-02T17:30:44.492Z,101136.69
2023-04-02T17:32:50.404Z,101140.22
2023-04-02T17:34:52.197Z,101141.91
2023-04-02T17:37:02.142Z,101154.88
2023-04-02T17:39:15.468Z,101151.13
2023-04-02T17:41:23.294Z,101158.34
2023-04-02T17:43:35.025Z,101167.53
2023-04-02T17:45:44.240Z,101168.91
2023-04-02T17:47:56.521Z,101175.09
2023-04-02T17:50:21.617Z,101179.41
2023-04-02T17:52:29.763Z,101189.41
2023-04-02T17:54:39.531Z,101191.28
2023-04-02T17:57:01.150Z,101188.63
2023-04-02T17:59:17.232Z,101205.38
2023-04-02T18:01:31.384Z,101209.63
2023-04-02T18:03:58.052Z,101216.78
2023-04-02T18:06:04.539Z,101218.34
2023-04-02T18:08:14.336Z,101227.34
2023-04-02T18:10:24.977Z,101233.19
2023-04-02T18:12:39.940Z,101244.28
2023-04-02T18:15:09.172Z,101242.91
2023-04-02T18:17:20.160Z,101237.75
2023-04-02T18:19:31.284Z,101247.63
2023-04-02T18:21:42.005Z,101252.47
2023-04-02T18:23:54.636Z,101261.78
2023-04-02T18:26:03.737Z,101258.09
2023-04-02T18:28:24.255Z,101267.47
2023-04-02T18:30:31.605Z,101272.91
2023-04-02T18:32:57.959Z,101280.38
2023-04-02T18:35:12.200Z,101281.38
2023-04-02T18:37:23.204Z,101287.25
2023-04-02T18:39:35.398Z,101295.63
2023-04-02T18:41:46.035Z,101297.13
2023-04-02T18:44:01.762Z,101305.97
2023-04-02T18:46:09.215Z,101323.50
2023-04-02T18:48:25.641Z,101317.13
2023-04-02T18:50:31.913Z,101326.44
2023-04-02T18:52:34.549Z,101331.22
2023-04-02T18:54:39.700Z,101333.72
2023-04-02T18:56:42.697Z,101336.72
2023-04-02T18:58:56.017Z,101344.91
2023-04-02T19:00:58.841Z,101342.03
2023-04-02T19:03:07.338Z,101355.22
2023-04-02T19:05:23.455Z,101368.09
2023-04-02T19:07:29.545Z,101367.63
2023-04-02T19:09:33.997Z,101371.94
2023-04-02T19:11:36.351Z,101374.69
2023-04-02T19:13:38.357Z,101373.63
2023-04-02T19:15:54.572Z,101382.91
2023-04-02T19:18:03.500Z,101385.59
2023-04-02T19:20:20.231Z,101393.81
2023-04-02T19:22:34.485Z,101398.22
2023-04-02T19:24:53.926Z,101407.78
2023-04-02T19:27:02.083Z,101409.75
2023-04-02T19:29:17.183Z,101406.53
2023-04-02T19:31:47.305Z,101415.53
2023-04-02T19:33:55.534Z,101418.59
2023-04-02T19:35:59.388Z,101425.09
2023-04-02T19:38:11.382Z,101431.97
2023-04-02T19:40:32.027Z,101436.34
2023-04-02T19:42:46.139Z,101436.94
2023-04-02T19:44:51.671Z,101439.38
2023-04-02T19:46:53.491Z,101443.22
2023-04-02T19:49:01.961Z,101438.50
2023-04-02T19:51:04.070Z,101450.56
2023-04-02T19:53:07.226Z,101445.97
2023-04-02T19:55:09.379Z,101440.47
2023-04-02T19:57:15.721Z,101446.22
2023-04-02T19:59:18.773Z,101443.94
2023-04-02T20:01:20.739Z,101450.19
2023-04-02T20:03:22.973Z,101458.06
2023-04-02T20:05:24.679Z,101455.88
2023-04-02T20:07:26.576Z,101462.22
2023-04-02T20:09:29.597Z,101464.53
2023-04-02T20:11:31.284Z,101467.38
2023-04-02T20:13:33.515Z,101474.13
2023-04-02T20:15:35.642Z,101478.66
2023-04-02T20:17:37.371Z,101479.03
2023-04-02T20:19:39.078Z,101484.06
2023-04-02T20:21:43.362Z,101489.56
2023-04-02T20:23:45.205Z,101491.31
2023-04-02T20:25:49.156Z,101490.81
2023-04-02T20:27:50.712Z,101494.91
2023-04-02T20:29:52.274Z,101495.16
2023-04-02T20:31:53.968Z,101499.22
2023-04-02T20:33:56.227Z,101503.19
2023-04-02T20:36:02.681Z,101509.97
2023-04-02T20:38:04.413Z,101507.94
2023-04-02T20:40:07.476Z,101510.66
2023-04-02T20:42:10.652Z,101515.34
2023-04-02T20:44:12.262Z,101518.38
2023-04-02T20:46:14.097Z,101516.75
2023-04-02T20:48:15.720Z,101523.16
2023-04-02T20:50:17.743Z,101531.09
2023-04-02T20:52:19.607Z,101526.31
2023-04-02T20:54:21.278Z,101530.16
2023-04-02T20:56:23.232Z,101529.94
2023-04-02T20:58:26.256Z,101534.22
2023-04-02T21:00:27.900Z,101538.56
2023-04-02T21:02:29.501Z,101546.97
2023-04-02T21:04:31.184Z,101549.75
2023-04-02T21:06:36.030Z,101547.09
2023-04-02T21:08:37.816Z,101556.78
2023-04-02T21:10:39.773Z,101549.28
2023-04-02T21:12:41.405Z,101556.28
2023-04-02T21:14:44.495Z,101559.69
2023-04-02T21:16:46.173Z,101561.53
2023-04-02T21:18:49.650Z,101567.97
2023-04-02T21:20:57.363Z,101568.66
2023-04-02T21:23:00.904Z,101562.47
2023-04-02T21:25:02.526Z,101562.59
2023-04-02T21:27:04.393Z,101567.38
2023-04-02T21:29:06.542Z,101569.59
2023-04-02T21:31:11.480Z,101565.50
2023-04-02T21:33:13.150Z,101561.28
2023-04-02T21:35:14.860Z,101565.25
2023-04-02T21:37:16.485Z,101568.97
2023-04-02T21:39:20.330Z,101572.16
2023-04-02T21:41:23.620Z,101573.47
2023-04-02T21:43:25.294Z,101574.59
2023-04-02T21:45:27.028Z,101563.06
2023-04-02T21:47:30.058Z,101573.34
2023-04-02T21:49:31.707Z,101573.56
2023-04-02T21:51:34.129Z,101572.53
2023-04-02T21:53:36.019Z,101565.06
2023-04-02T21:55:37.630Z,101574.03
2023-04-02T21:57:39.320Z,101580.81
2023-04-02T21:59:44.084Z,101577.66
2023-04-02T22:01:47.295Z,101576.84
2023-04-02T22:03:50.511Z,101569.84
2023-04-02T22:06:01.240Z,101580.69
2023-04-02T22:08:02.970Z,101578.13
2023-04-02T22:10:05.094Z,101576.94
2023-04-02T22:12:06.685Z,101581.50
2023-04-02T22:14:08.405Z,101579.41
2023-04-02T22:16:12.401Z,101581.75
2023-04-02T22:18:13.983Z,101583.75
2023-04-02T22:20:17.109Z,101578.72
2023-04-02T22:22:18.736Z,101582.22
2023-04-02T22:24:20.415Z,101583.38
2023-04-02T22:26:23.023Z,101592.59
2023-04-02T22:28:25.717Z,101591.78
2023-04-02T22:30:27.305Z,101590.28
2023-04-02T22:32:29.034Z,101593.41
2023-04-02T22:34:30.720Z,101595.88
2023-04-02T22:36:34.516Z,101598.34
2023-04-02T22:38:36.527Z,101588.66
2023-04-02T22:40:38.402Z,101591.69
2023-04-02T22:42:40.112Z,101587.72
2023-04-02T22:44:41.707Z,101586.53
2023-04-02T22:46:43.410Z,101578.25
2023-04-02T22:48:48.940Z,101577.78
2023-04-02T22:50:50.907Z,101586.41
2023-04-02T22:52:54.089Z,101588.66
2023-04-02T22:54:55.683Z,101590.88
2023-04-02T22:56:57.394Z,101587.59
2023-04-02T22:58:59.408Z,101588.75
2023-04-02T23:01:03.564Z,101587.22
2023-04-02T23:03:05.697Z,101594.00
2023-04-02T23:05:08.211Z,101588.63
2023-04-02T23:07:10.039Z,101591.56
2023-04-02T23:09:13.122Z,101591.44
2023-04-02T23:11:16.051Z,101583.03
2023-04-02T23:13:17.598Z,101592.97
2023-04-02T23:15:19.385Z,101590.03
2023-04-02T23:17:20.974Z,101588.75
2023-04-02T23:19:22.648Z,101587.34
2023-04-02T23:21:25.523Z,101586.75
2023-04-02T23:23:27.544Z,101591.31
2023-04-02T23:25:30.540Z,101590.50
2023-04-02T23:27:32.641Z,101585.97
2023-04-02T23:29:34.234Z,101584.19
2023-04-02T23:31:35.866Z,101586.53
2023-04-02T23:33:37.624Z,101582.31
2023-04-02T23:35:39.240Z,101583.84
2023-04-02T23:37:40.798Z,101589.22
2023-04-02T23:39:42.857Z,101583.84
2023-04-02T23:41:46.069Z,101584.69
2023-04-02T23:43:47.965Z,101586.53
2023-04-02T23:45:50.026Z,101583.03
2023-04-02T23:47:51.710Z,101587.81
2023-04-02T23:49:53.576Z,101584.91
2023-04-02T23:51:55.460Z,101582.69
2023-04-02T23:53:57.051Z,101585.84
2023-04-02T23:55:58.613Z,101573.47
2023-04-02T23:58:01.544Z,101580.59
